Time;durP1;ratioP1;P1;durP2;ratioP2;P2;SDS_P1;SDS_P2;PMS_P1;PMS_P2;Temp;Humidity;BMP_temperature;BMP_pressure;BME280_temperature;BME280_humidity;BME280_pressure;Samples;Min_cycle;Max_cycle;Signal;HPM_P1;HPM_P2
2023/04/14 00:01:30;;;;;;;0.70;0.70;;;7.80;99.90;;;;;;6235877;28;20466;-67
2023/04/14 00:04:36;;;;;;;2.20;1.40;;;7.80;99.90;;;;;;6237810;28;20483;-67
2023/04/14 00:07:39;;;;;;;0.70;0.70;;;7.70;99.90;;;;;;6238556;28;20475;-67
2023/04/14 00:10:44;;;;;;;0.97;0.50;;;7.70;99.90;;;;;;6247669;28;20470;-67
2023/04/14 00:13:49;;;;;;;1.27;0.63;;;7.80;99.90;;;;;;6249831;28;20463;-67
2023/04/14 00:16:52;;;;;;;1.07;1.07;;;7.80;99.90;;;;;;6240385;28;20959;-67
2023/04/14 00:19:58;;;;;;;0.50;0.50;;;7.80;99.90;;;;;;6237161;28;20482;-67
2023/04/14 00:23:02;;;;;;;0.83;0.60;;;7.80;99.90;;;;;;6238317;28;20486;-67
2023/04/14 00:26:07;;;;;;;0.60;0.60;;;7.80;99.90;;;;;;6263660;28;20476;-67
2023/04/14 00:29:10;;;;;;;0.60;0.60;;;7.80;99.90;;;;;;6238509;28;20468;-67
2023/04/14 00:32:13;;;;;;;0.90;0.70;;;7.90;99.90;;;;;;6238109;28;20481;-67
2023/04/14 00:35:16;;;;;;;0.60;0.60;;;7.90;99.90;;;;;;6235544;28;20914;-67
2023/04/14 00:38:20;;;;;;;0.57;0.57;;;7.90;99.90;;;;;;6238010;28;20471;-67
2023/04/14 00:41:32;;;;;;;0.67;0.63;;;7.90;99.90;;;;;;6236166;28;20822;-67
2023/04/14 00:44:38;;;;;;;0.50;0.50;;;7.90;99.90;;;;;;6235102;28;20489;-67
2023/04/14 00:47:45;;;;;;;0.50;0.50;;;7.90;99.90;;;;;;6238466;28;20440;-68
2023/04/14 00:50:52;;;;;;;0.60;0.60;;;7.90;99.90;;;;;;6239566;28;20427;-67
2023/04/14 00:53:56;;;;;;;0.60;0.60;;;7.80;99.90;;;;;;6234167;28;20482;-67
2023/04/14 00:57:03;;;;;;;0.60;0.60;;;7.80;99.90;;;;;;6238327;28;20529;-67
2023/04/14 01:00:07;;;;;;;0.80;0.80;;;7.80;99.90;;;;;;6232688;28;21042;-67
2023/04/14 01:03:11;;;;;;;0.60;0.60;;;7.70;99.90;;;;;;6224542;28;20498;-67
2023/04/14 01:06:14;;;;;;;0.50;0.50;;;7.70;99.90;;;;;;6241393;28;20548;-67
2023/04/14 01:09:17;;;;;;;0.60;0.60;;;7.70;99.90;;;;;;6253796;28;20483;-67
2023/04/14 01:12:33;;;;;;;0.60;0.60;;;7.70;99.90;;;;;;6233750;28;20471;-66
2023/04/14 01:15:43;;;;;;;1.27;0.50;;;7.70;99.90;;;;;;6241467;28;20482;-66
2023/04/14 01:18:53;;;;;;;0.53;0.53;;;7.50;99.90;;;;;;6248918;28;20490;-66
2023/04/14 01:22:02;;;;;;;0.60;0.60;;;7.40;99.90;;;;;;6249012;28;20482;-66
2023/04/14 01:25:33;;;;;;;0.50;0.50;;;7.40;99.90;;;;;;6249367;28;20467;-66
2023/04/14 01:29:27;;;;;;;0.60;0.60;;;7.30;99.90;;;;;;6253404;28;20478;-66
2023/04/14 01:32:36;;;;;;;0.70;0.70;;;7.20;99.90;;;;;;6180538;28;20460;-66
2023/04/14 01:35:47;;;;;;;0.60;0.60;;;7.20;99.90;;;;;;6241391;28;20880;-67
2023/04/14 01:38:53;;;;;;;0.60;0.60;;;7.20;99.90;;;;;;6243006;28;20471;-67
2023/04/14 01:41:58;;;;;;;0.60;0.60;;;7.20;99.90;;;;;;6243551;28;20470;-67
2023/04/14 01:45:07;;;;;;;0.60;0.60;;;7.20;99.90;;;;;;6261709;28;20479;-67
2023/04/14 01:48:12;;;;;;;0.60;0.60;;;7.30;99.90;;;;;;6252885;28;20467;-67
2023/04/14 01:51:19;;;;;;;0.60;0.60;;;7.40;99.90;;;;;;6244207;28;20470;-67
2023/04/14 01:54:23;;;;;;;0.70;0.67;;;7.40;99.90;;;;;;6236147;28;20490;-67
2023/04/14 01:57:28;;;;;;;0.60;0.60;;;7.40;99.90;;;;;;6239256;28;20520;-67
2023/04/14 02:00:33;;;;;;;0.60;0.60;;;7.40;99.90;;;;;;6237362;28;20812;-67
2023/04/14 02:03:42;;;;;;;0.60;0.60;;;7.40;99.90;;;;;;6242080;28;20490;-67
2023/04/14 02:06:47;;;;;;;1.00;0.60;;;7.40;99.90;;;;;;6241149;28;20797;-67
2023/04/14 02:09:51;;;;;;;1.70;0.60;;;7.40;99.90;;;;;;6239722;28;20471;-68
2023/04/14 02:13:02;;;;;;;0.90;0.80;;;7.40;99.90;;;;;;6240200;28;20555;-68
2023/04/14 02:16:08;;;;;;;0.60;0.60;;;7.40;99.90;;;;;;6241914;28;20470;-68
2023/04/14 02:19:18;;;;;;;0.60;0.60;;;7.40;99.90;;;;;;6239319;28;20471;-68
2023/04/14 02:22:21;;;;;;;0.60;0.60;;;7.40;99.90;;;;;;6238722;28;20464;-68
2023/04/14 02:25:30;;;;;;;0.60;0.60;;;7.40;99.90;;;;;;6238318;28;20483;-68
2023/04/14 02:28:46;;;;;;;0.60;0.60;;;7.40;99.90;;;;;;6237889;28;20475;-67
2023/04/14 02:31:52;;;;;;;0.70;0.70;;;7.40;99.90;;;;;;6240563;28;20471;-67
2023/04/14 02:35:03;;;;;;;0.50;0.50;;;7.50;99.90;;;;;;6240366;28;20482;-67
2023/04/14 02:38:13;;;;;;;0.60;0.60;;;7.40;99.90;;;;;;6237745;28;20539;-67
2023/04/14 02:41:22;;;;;;;0.70;0.70;;;7.40;99.90;;;;;;6239187;28;20463;-67
2023/04/14 02:44:29;;;;;;;0.60;0.60;;;7.40;99.90;;;;;;6239238;28;20484;-67
2023/04/14 02:47:37;;;;;;;0.60;0.60;;;7.40;99.90;;;;;;6251375;28;20535;-67
2023/04/14 02:50:45;;;;;;;0.50;0.50;;;7.40;99.90;;;;;;6251971;28;20420;-67
2023/04/14 02:53:49;;;;;;;0.50;0.50;;;7.30;99.90;;;;;;6251456;28;20752;-67
2023/04/14 02:56:53;;;;;;;0.50;0.50;;;7.40;99.90;;;;;;6251514;28;20930;-67
2023/04/14 02:59:58;;;;;;;0.50;0.50;;;7.40;99.90;;;;;;6251055;28;20467;-67
2023/04/14 03:03:04;;;;;;;0.70;0.70;;;7.30;99.90;;;;;;6251263;28;20810;-66
2023/04/14 03:06:09;;;;;;;1.03;0.70;;;7.30;99.90;;;;;;6251109;28;20471;-66
2023/04/14 03:09:13;;;;;;;0.60;0.60;;;7.30;99.90;;;;;;6251347;28;20482;-66
2023/04/14 03:12:18;;;;;;;0.70;0.70;;;7.30;99.90;;;;;;6251004;28;20475;-66
2023/04/14 03:15:22;;;;;;;0.60;0.60;;;7.30;99.90;;;;;;6250803;28;20977;-66
2023/04/14 03:18:27;;;;;;;0.50;0.50;;;7.40;99.90;;;;;;6250767;28;20490;-66
2023/04/14 03:21:33;;;;;;;0.70;0.70;;;7.40;99.90;;;;;;6250700;28;20513;-66
2023/04/14 03:24:37;;;;;;;0.60;0.60;;;7.40;99.90;;;;;;6250655;28;20483;-66
2023/04/14 03:27:42;;;;;;;0.60;0.60;;;7.40;99.90;;;;;;6250696;28;20483;-66
2023/04/14 03:30:50;;;;;;;0.60;0.60;;;7.30;99.90;;;;;;6250487;28;20471;-66
2023/04/14 03:33:56;;;;;;;0.80;0.80;;;7.30;99.90;;;;;;6250604;28;20529;-66
2023/04/14 03:37:02;;;;;;;0.60;0.60;;;7.30;99.90;;;;;;6250558;28;20536;-66
2023/04/14 03:40:09;;;;;;;0.60;0.60;;;7.20;99.90;;;;;;6250120;28;20482;-66
2023/04/14 03:43:18;;;;;;;0.63;0.63;;;7.20;99.90;;;;;;6250464;28;20546;-66
2023/04/14 03:46:22;;;;;;;0.60;0.60;;;7.20;99.90;;;;;;6249808;28;20486;-66
2023/04/14 03:49:27;;;;;;;0.80;0.80;;;7.20;99.90;;;;;;6250016;28;20776;-66
2023/04/14 03:52:35;;;;;;;0.60;0.60;;;7.20;99.90;;;;;;6249938;28;20769;-66
2023/04/14 03:55:41;;;;;;;0.60;0.60;;;7.30;99.90;;;;;;6249986;28;20478;-66
2023/04/14 03:58:48;;;;;;;0.57;0.57;;;7.20;99.90;;;;;;6250089;28;20494;-66
2023/04/14 04:01:52;;;;;;;0.87;0.60;;;7.20;99.90;;;;;;6249943;28;20478;-66
2023/04/14 04:04:58;;;;;;;0.67;0.67;;;7.20;99.90;;;;;;6249674;28;20479;-66
2023/04/14 04:08:03;;;;;;;0.70;0.70;;;7.20;99.90;;;;;;6250169;28;20471;-66
2023/04/14 04:11:08;;;;;;;0.60;0.60;;;7.20;99.90;;;;;;6250100;28;20463;-66
2023/04/14 04:14:14;;;;;;;1.00;0.73;;;7.20;99.90;;;;;;6249709;28;20502;-67
2023/04/14 04:17:22;;;;;;;0.60;0.60;;;7.30;99.90;;;;;;6249866;28;21764;-67
2023/04/14 04:20:26;;;;;;;0.70;0.70;;;7.30;99.90;;;;;;6249912;28;20481;-67
2023/04/14 04:23:33;;;;;;;0.70;0.70;;;7.30;99.90;;;;;;6247358;28;20482;-68
2023/04/14 04:26:36;;;;;;;0.73;0.73;;;7.20;99.90;;;;;;6252205;28;20478;-68
2023/04/14 04:29:39;;;;;;;0.60;0.60;;;7.30;99.90;;;;;;6250158;28;20462;-67
2023/04/14 04:32:42;;;;;;;0.60;0.60;;;7.30;99.90;;;;;;6249505;28;20473;-67
2023/04/14 04:35:47;;;;;;;0.60;0.60;;;7.30;99.90;;;;;;6249652;28;20942;-67
2023/04/14 04:38:52;;;;;;;0.80;0.70;;;7.40;99.90;;;;;;6249754;28;20501;-67
2023/04/14 04:42:02;;;;;;;0.80;0.80;;;7.30;99.90;;;;;;6249585;28;20458;-67
2023/04/14 04:45:06;;;;;;;0.60;0.60;;;7.40;99.90;;;;;;6249321;28;20471;-67
2023/04/14 04:48:09;;;;;;;0.90;0.73;;;7.40;99.90;;;;;;6249779;28;20985;-67
2023/04/14 04:51:12;;;;;;;0.87;0.60;;;7.40;99.90;;;;;;6249432;28;20484;-67
2023/04/14 04:54:17;;;;;;;1.10;0.70;;;7.40;99.90;;;;;;6249793;28;20486;-67
2023/04/14 04:57:20;;;;;;;0.90;0.90;;;7.40;99.90;;;;;;6249361;28;20479;-67
2023/04/14 05:00:25;;;;;;;0.67;0.67;;;7.40;99.90;;;;;;6250759;28;20480;-67
2023/04/14 05:03:28;;;;;;;0.70;0.70;;;7.40;99.90;;;;;;6253757;28;20533;-68
2023/04/14 05:06:34;;;;;;;1.43;0.70;;;7.40;99.90;;;;;;6254194;28;20474;-67
2023/04/14 05:09:38;;;;;;;0.77;0.77;;;7.40;99.90;;;;;;6254044;28;20475;-66
2023/04/14 05:12:41;;;;;;;0.90;0.90;;;7.30;99.90;;;;;;6253933;28;20795;-67
2023/04/14 05:15:44;;;;;;;1.00;1.00;;;7.40;99.90;;;;;;6254265;28;20475;-67
2023/04/14 05:18:47;;;;;;;0.80;0.80;;;7.40;99.90;;;;;;6253886;28;20721;-66
2023/04/14 05:21:51;;;;;;;0.63;0.63;;;7.40;99.90;;;;;;6253960;28;20475;-67
2023/04/14 05:24:55;;;;;;;0.63;0.63;;;7.50;99.90;;;;;;6253640;28;20474;-67
2023/04/14 05:27:58;;;;;;;0.90;0.90;;;7.50;99.90;;;;;;6254177;28;20474;-68
2023/04/14 05:31:01;;;;;;;0.80;0.73;;;7.50;99.90;;;;;;6253623;28;20787;-67
2023/04/14 05:34:05;;;;;;;0.80;0.80;;;7.50;99.90;;;;;;6253499;28;20474;-67
2023/04/14 05:37:08;;;;;;;0.90;0.90;;;7.50;99.90;;;;;;6253156;28;20485;-67
2023/04/14 05:40:13;;;;;;;2.60;0.90;;;7.50;99.90;;;;;;6253076;28;20549;-67
2023/04/14 05:43:16;;;;;;;0.80;0.80;;;7.50;99.90;;;;;;6253321;28;20495;-67
2023/04/14 05:46:19;;;;;;;0.80;0.80;;;7.50;99.90;;;;;;6253136;28;20493;-67
2023/04/14 05:49:22;;;;;;;0.80;0.80;;;7.40;99.90;;;;;;6252984;28;20807;-67
2023/04/14 05:52:25;;;;;;;0.80;0.80;;;7.50;99.90;;;;;;6253180;28;20475;-67
2023/04/14 05:55:31;;;;;;;2.20;0.90;;;7.40;99.90;;;;;;6253095;28;20470;-67
2023/04/14 05:58:34;;;;;;;0.87;0.87;;;7.40;99.90;;;;;;6252688;28;20915;-67
2023/04/14 06:01:37;;;;;;;0.80;0.80;;;7.40;99.90;;;;;;6252781;28;20950;-67
2023/04/14 06:04:40;;;;;;;0.70;0.70;;;7.40;99.90;;;;;;6252816;28;20546;-67
2023/04/14 06:07:44;;;;;;;0.80;0.80;;;7.40;99.90;;;;;;6252888;28;20474;-67
2023/04/14 06:10:48;;;;;;;1.50;0.80;;;7.30;99.90;;;;;;6252526;28;20481;-67
2023/04/14 06:13:51;;;;;;;1.47;1.20;;;7.30;99.90;;;;;;6253372;28;20507;-66
2023/04/14 06:16:55;;;;;;;4.37;3.03;;;7.30;99.90;;;;;;6253214;28;20473;-66
2023/04/14 06:19:58;;;;;;;1.00;0.90;;;7.20;99.90;;;;;;6253660;28;20475;-67
2023/04/14 06:23:01;;;;;;;0.90;0.90;;;7.10;99.90;;;;;;6252205;28;20463;-67
2023/04/14 06:26:06;;;;;;;1.30;1.20;;;7.10;99.90;;;;;;6252142;28;20792;-67
2023/04/14 06:29:10;;;;;;;1.20;1.10;;;7.10;99.90;;;;;;6252453;28;20479;-67
2023/04/14 06:32:13;;;;;;;1.03;1.03;;;7.00;99.90;;;;;;6252725;28;20475;-67
2023/04/14 06:35:17;;;;;;;0.90;0.90;;;7.00;99.90;;;;;;6252015;28;20485;-67
2023/04/14 06:38:35;;;;;;;0.90;0.90;;;7.00;99.90;;;;;;6276158;28;20466;-67
2023/04/14 06:41:39;;;;;;;1.00;1.00;;;7.00;99.90;;;;;;6252152;28;20439;-67
2023/04/14 06:44:42;;;;;;;2.50;1.20;;;7.00;99.90;;;;;;6251906;28;20826;-67
2023/04/14 06:47:46;;;;;;;0.90;0.90;;;7.10;99.90;;;;;;6253595;28;20558;-66
2023/04/14 06:50:55;;;;;;;3.20;1.27;;;7.00;99.90;;;;;;6250589;28;20459;-68
2023/04/14 06:53:58;;;;;;;1.07;1.07;;;6.90;99.90;;;;;;6251949;28;20463;-67
2023/04/14 06:57:03;;;;;;;0.90;0.90;;;7.00;99.90;;;;;;6251970;28;20471;-67
2023/04/14 07:00:08;;;;;;;0.80;0.80;;;7.10;99.90;;;;;;6252855;28;20467;-68
2023/04/14 07:03:11;;;;;;;0.93;0.93;;;7.20;99.90;;;;;;6254990;28;20475;-67
2023/04/14 07:06:15;;;;;;;2.20;1.27;;;7.20;99.90;;;;;;6251713;28;20478;-66
2023/04/14 07:09:20;;;;;;;1.87;0.80;;;7.20;99.90;;;;;;6250769;28;20475;-65
2023/04/14 07:12:24;;;;;;;0.90;0.90;;;7.20;99.90;;;;;;6251050;28;20474;-65
2023/04/14 07:15:28;;;;;;;0.90;0.90;;;7.20;99.90;;;;;;6250981;28;20479;-65
2023/04/14 07:18:32;;;;;;;1.10;1.10;;;7.20;99.90;;;;;;6250789;28;20569;-65
2023/04/14 07:21:36;;;;;;;1.00;1.00;;;7.30;99.90;;;;;;6251243;28;20474;-65
2023/04/14 07:24:39;;;;;;;1.13;1.13;;;7.30;99.90;;;;;;6250121;28;20482;-66
2023/04/14 07:27:44;;;;;;;0.90;0.90;;;7.40;99.90;;;;;;6251365;28;20475;-66
2023/04/14 07:31:09;;;;;;;1.13;1.03;;;7.40;99.90;;;;;;6250700;28;20542;-65
2023/04/14 07:34:12;;;;;;;0.90;0.90;;;7.50;99.90;;;;;;6250479;28;20475;-66
2023/04/14 07:37:16;;;;;;;0.80;0.80;;;7.60;99.90;;;;;;6250535;28;20470;-65
2023/04/14 07:40:20;;;;;;;1.27;1.00;;;7.70;99.90;;;;;;6250539;28;20822;-64
2023/04/14 07:43:24;;;;;;;1.60;0.93;;;7.70;99.90;;;;;;6250273;28;20820;-65
2023/04/14 07:46:27;;;;;;;1.00;1.00;;;7.70;99.90;;;;;;6250805;28;20467;-63
2023/04/14 07:49:31;;;;;;;1.57;1.10;;;7.80;99.90;;;;;;6250430;28;20480;-65
2023/04/14 07:52:34;;;;;;;2.87;0.80;;;7.80;99.90;;;;;;6249954;28;20471;-64
2023/04/14 07:55:37;;;;;;;1.17;1.07;;;7.80;99.90;;;;;;6249622;28;20483;-64
2023/04/14 07:58:42;;;;;;;0.80;0.80;;;7.80;99.90;;;;;;6249973;28;20467;-66
2023/04/14 08:01:45;;;;;;;0.83;0.83;;;7.70;99.90;;;;;;6249965;28;20955;-65
2023/04/14 08:04:48;;;;;;;1.73;1.17;;;7.80;99.90;;;;;;6249236;28;20481;-68
2023/04/14 08:07:52;;;;;;;1.23;1.07;;;7.80;99.90;;;;;;6248697;28;20482;-66
2023/04/14 08:10:55;;;;;;;1.40;1.30;;;7.80;99.90;;;;;;6248686;28;20474;-65
2023/04/14 08:13:59;;;;;;;0.90;0.90;;;7.80;99.90;;;;;;6248827;28;20478;-67
2023/04/14 08:17:02;;;;;;;0.93;0.93;;;7.80;99.90;;;;;;6248115;28;20482;-66
2023/04/14 08:20:07;;;;;;;1.10;1.10;;;7.80;99.90;;;;;;6248370;28;20471;-66
2023/04/14 08:23:11;;;;;;;1.27;1.17;;;7.80;99.90;;;;;;6247711;28;20481;-67
2023/04/14 08:26:14;;;;;;;1.20;1.10;;;7.80;99.90;;;;;;6247623;28;20482;-65
2023/04/14 08:29:18;;;;;;;2.20;1.30;;;7.80;99.90;;;;;;6248176;28;20593;-66
2023/04/14 08:32:21;;;;;;;1.43;1.10;;;7.80;99.90;;;;;;6228736;28;20571;-65
2023/04/14 08:35:25;;;;;;;2.10;1.70;;;7.80;99.90;;;;;;6227979;28;20970;-66
2023/04/14 08:38:43;;;;;;;1.13;1.07;;;7.80;99.90;;;;;;6230457;28;20760;-64
2023/04/14 08:41:46;;;;;;;1.57;1.10;;;7.90;99.90;;;;;;6229924;28;20907;-65
2023/04/14 08:44:51;;;;;;;2.20;1.20;;;7.90;99.90;;;;;;6230061;28;20467;-65
2023/04/14 08:47:56;;;;;;;1.27;0.80;;;8.00;99.90;;;;;;6229400;28;20533;-66
2023/04/14 08:51:07;;;;;;;1.83;1.27;;;8.00;99.90;;;;;;6229221;28;20781;-68
2023/04/14 08:54:11;;;;;;;1.67;1.30;;;8.20;99.90;;;;;;6227971;28;20480;-67
2023/04/14 08:57:18;;;;;;;2.17;1.20;;;8.20;99.90;;;;;;6229404;28;20472;-66
2023/04/14 09:00:23;;;;;;;1.27;1.17;;;8.20;99.90;;;;;;6235926;28;20581;-65
2023/04/14 09:03:27;;;;;;;0.80;0.80;;;8.20;99.90;;;;;;6247344;28;20489;-66
2023/04/14 09:06:31;;;;;;;2.20;1.83;;;8.20;99.90;;;;;;6229116;28;20484;-66
2023/04/14 09:09:34;;;;;;;2.20;1.33;;;8.20;99.90;;;;;;6229322;28;20467;-67
2023/04/14 09:12:39;;;;;;;1.90;1.70;;;8.20;99.90;;;;;;6229377;28;20470;-64
2023/04/14 09:15:45;;;;;;;1.23;1.13;;;8.20;99.90;;;;;;6227926;28;20611;-64
2023/04/14 09:18:48;;;;;;;1.37;1.20;;;8.30;99.90;;;;;;6228776;28;20476;-64
2023/04/14 09:21:53;;;;;;;1.13;1.10;;;8.40;99.90;;;;;;6228697;28;20467;-64
2023/04/14 09:24:58;;;;;;;0.93;0.93;;;8.40;99.90;;;;;;6229038;28;20561;-65
2023/04/14 09:28:01;;;;;;;1.10;1.10;;;8.50;99.90;;;;;;6228912;28;20807;-64
2023/04/14 09:31:07;;;;;;;1.27;1.27;;;8.60;99.90;;;;;;6228796;28;20482;-64
2023/04/14 09:34:16;;;;;;;1.40;1.10;;;8.70;99.90;;;;;;6228582;28;20503;-63
2023/04/14 09:37:21;;;;;;;1.67;1.40;;;8.80;99.90;;;;;;6228829;28;20468;-63
2023/04/14 09:40:28;;;;;;;1.30;1.17;;;8.80;99.90;;;;;;6228461;28;20758;-63
2023/04/14 09:43:32;;;;;;;1.03;1.00;;;8.90;99.90;;;;;;6231053;28;20822;-63
2023/04/14 09:46:38;;;;;;;1.43;1.00;;;8.80;99.90;;;;;;6236632;28;20801;-63
2023/04/14 09:49:56;;;;;;;1.30;1.20;;;8.90;99.90;;;;;;6235011;28;20486;-63
2023/04/14 09:53:04;;;;;;;0.83;0.80;;;9.00;99.90;;;;;;6240445;28;20469;-65
2023/04/14 09:56:09;;;;;;;0.90;0.90;;;9.10;99.90;;;;;;6239657;28;20792;-64
2023/04/14 09:59:12;;;;;;;1.40;1.30;;;9.10;99.90;;;;;;6244109;28;20847;-63
2023/04/14 10:02:16;;;;;;;1.50;1.40;;;9.10;99.90;;;;;;6246493;28;20476;-63
2023/04/14 10:05:20;;;;;;;0.80;0.80;;;9.20;99.90;;;;;;6237321;28;20472;-63
2023/04/14 10:08:34;;;;;;;1.50;1.40;;;9.30;99.90;;;;;;6237150;28;20507;-66
2023/04/14 10:11:38;;;;;;;0.97;0.83;;;9.40;99.90;;;;;;6227812;28;20456;-67
2023/04/14 10:14:42;;;;;;;1.37;1.00;;;9.50;99.90;;;;;;6227723;28;20802;-66
2023/04/14 10:17:47;;;;;;;2.13;1.70;;;9.60;99.90;;;;;;6227690;28;20505;-66
2023/04/14 10:20:51;;;;;;;0.80;0.80;;;9.70;99.90;;;;;;6228278;28;20440;-67
2023/04/14 10:23:56;;;;;;;0.60;0.60;;;9.70;99.90;;;;;;6227305;28;20753;-68
2023/04/14 10:27:02;;;;;;;1.60;1.50;;;9.80;99.90;;;;;;6240377;28;20489;-66
2023/04/14 10:30:07;;;;;;;26.60;14.73;;;9.70;99.90;;;;;;6272690;28;20506;-66
2023/04/14 10:33:12;;;;;;;24.97;13.13;;;9.70;99.90;;;;;;6251814;28;20481;-65
2023/04/14 10:36:24;;;;;;;5.10;3.43;;;9.70;99.90;;;;;;6252097;28;20470;-67
2023/04/14 10:39:27;;;;;;;1.33;1.07;;;9.80;99.90;;;;;;6252096;28;20649;-67
2023/04/14 10:42:50;;;;;;;1.73;1.23;;;9.80;99.90;;;;;;6252121;28;20498;-66
2023/04/14 10:45:54;;;;;;;2.00;1.40;;;9.80;99.90;;;;;;6251547;28;20467;-66
2023/04/14 10:48:58;;;;;;;2.87;2.33;;;9.80;99.90;;;;;;6248796;28;20466;-66
2023/04/14 10:52:05;;;;;;;3.07;1.70;;;9.80;99.90;;;;;;6251979;28;20962;-66
2023/04/14 10:55:10;;;;;;;1.17;1.00;;;9.90;99.90;;;;;;6244703;28;20503;-66
2023/04/14 10:58:20;;;;;;;0.90;0.63;;;10.00;99.90;;;;;;6241587;28;20464;-65
2023/04/14 11:01:29;;;;;;;0.50;0.50;;;10.00;99.90;;;;;;6243091;28;20471;-66
2023/04/14 11:04:50;;;;;;;0.50;0.50;;;10.00;99.90;;;;;;6231993;28;20777;-64
2023/04/14 11:07:57;;;;;;;0.70;0.70;;;10.10;99.90;;;;;;6217723;28;20849;-65
2023/04/14 11:11:05;;;;;;;1.00;0.93;;;10.10;99.90;;;;;;6234648;28;20573;-66
2023/04/14 11:14:11;;;;;;;0.63;0.63;;;10.00;99.90;;;;;;6249660;28;20977;-63
2023/04/14 11:17:21;;;;;;;0.80;0.60;;;10.00;99.90;;;;;;6245180;28;20475;-64
2023/04/14 11:20:25;;;;;;;0.83;0.70;;;10.00;99.90;;;;;;6241488;28;20465;-64
2023/04/14 11:23:29;;;;;;;1.70;1.00;;;10.10;99.90;;;;;;6240875;28;20810;-65
2023/04/14 11:26:33;;;;;;;0.73;0.73;;;10.20;99.90;;;;;;6231050;28;20479;-65
2023/04/14 11:29:37;;;;;;;0.90;0.80;;;10.30;99.90;;;;;;6242723;28;20502;-66
2023/04/14 11:32:49;;;;;;;0.83;0.57;;;10.30;99.90;;;;;;6250750;28;20461;-65
2023/04/14 11:35:54;;;;;;;0.90;0.70;;;10.40;99.90;;;;;;6272646;28;20466;-66
2023/04/14 11:38:59;;;;;;;0.70;0.70;;;10.30;99.90;;;;;;6250628;28;20789;-67
2023/04/14 11:42:04;;;;;;;0.80;0.80;;;10.30;99.60;;;;;;6248134;28;20511;-64
2023/04/14 11:45:10;;;;;;;1.20;0.73;;;10.30;99.30;;;;;;6249024;28;20785;-67
2023/04/14 11:48:16;;;;;;;2.40;0.93;;;10.20;99.80;;;;;;6249896;28;20232;-66
2023/04/14 11:51:20;;;;;;;1.00;1.00;;;10.20;99.90;;;;;;6249505;28;20478;-65
2023/04/14 11:54:33;;;;;;;0.70;0.70;;;10.20;99.40;;;;;;6249647;28;20479;-64
2023/04/14 11:57:37;;;;;;;1.63;1.10;;;10.10;99.20;;;;;;6249974;28;20467;-65
2023/04/14 12:00:40;;;;;;;0.60;0.60;;;10.00;99.00;;;;;;6249354;28;20498;-65
2023/04/14 12:03:45;;;;;;;0.97;0.90;;;9.90;99.70;;;;;;6249892;28;20479;-66
2023/04/14 12:06:50;;;;;;;0.77;0.77;;;9.80;99.90;;;;;;6250036;28;21056;-65
2023/04/14 12:09:56;;;;;;;0.87;0.83;;;9.80;99.90;;;;;;6243859;28;20471;-67
2023/04/14 12:13:01;;;;;;;0.93;0.93;;;9.80;99.90;;;;;;6248049;28;20942;-66
2023/04/14 12:16:04;;;;;;;1.53;0.87;;;9.80;99.90;;;;;;6249648;28;20494;-65
2023/04/14 12:19:08;;;;;;;1.00;0.90;;;9.80;99.90;;;;;;6249425;28;20466;-65
2023/04/14 12:22:14;;;;;;;0.80;0.80;;;9.90;99.90;;;;;;6249999;28;20969;-64
2023/04/14 12:25:18;;;;;;;1.10;0.77;;;9.90;99.90;;;;;;6249493;28;20467;-64
2023/04/14 12:28:28;;;;;;;1.87;0.80;;;10.00;99.90;;;;;;6235932;28;20982;-63
2023/04/14 12:31:31;;;;;;;0.83;0.73;;;10.10;99.70;;;;;;6230496;28;20983;-63
2023/04/14 12:34:34;;;;;;;0.87;0.87;;;10.10;99.20;;;;;;6243893;28;20489;-63
2023/04/14 12:37:40;;;;;;;0.87;0.73;;;10.10;99.30;;;;;;6245448;28;20471;-64
2023/04/14 12:40:46;;;;;;;1.07;0.97;;;10.00;99.20;;;;;;6225001;28;20811;-64
2023/04/14 12:43:50;;;;;;;1.30;1.10;;;10.10;99.50;;;;;;6239153;28;20474;-67
2023/04/14 12:46:54;;;;;;;1.20;1.13;;;10.10;99.30;;;;;;6231134;28;20471;-67
2023/04/14 12:49:57;;;;;;;5.57;5.07;;;10.10;99.50;;;;;;6246767;28;20479;-66
2023/04/14 12:53:02;;;;;;;5.03;3.43;;;10.20;99.50;;;;;;6251100;28;20475;-66
2023/04/14 12:56:07;;;;;;;2.33;1.83;;;10.30;99.50;;;;;;6251080;28;20815;-66
2023/04/14 12:59:11;;;;;;;0.80;0.80;;;10.40;99.60;;;;;;6250334;28;20471;-66
2023/04/14 13:02:14;;;;;;;1.00;0.90;;;10.40;98.50;;;;;;6251375;28;20487;-67
2023/04/14 13:05:17;;;;;;;0.90;0.80;;;10.40;98.30;;;;;;6250206;28;20490;-64
2023/04/14 13:08:22;;;;;;;1.40;1.10;;;10.50;98.00;;;;;;6251767;28;20483;-66
2023/04/14 13:11:25;;;;;;;0.90;0.90;;;10.40;97.40;;;;;;6254759;28;20817;-65
2023/04/14 13:14:28;;;;;;;1.20;1.07;;;10.40;97.40;;;;;;6249162;28;20489;-66
2023/04/14 13:17:32;;;;;;;1.53;1.40;;;10.50;97.50;;;;;;6237040;28;20498;-67
2023/04/14 13:20:36;;;;;;;1.30;1.20;;;10.60;97.40;;;;;;6230125;28;20476;-68
2023/04/14 13:23:40;;;;;;;1.33;1.00;;;10.70;97.00;;;;;;6254268;28;20994;-65
2023/04/14 13:26:44;;;;;;;1.10;1.00;;;10.70;97.50;;;;;;6254579;28;20534;-69
2023/04/14 13:29:48;;;;;;;2.20;2.00;;;10.80;97.70;;;;;;6253083;28;20493;-66
2023/04/14 13:32:51;;;;;;;2.07;1.47;;;10.60;97.50;;;;;;6273621;28;20882;-67
2023/04/14 13:35:55;;;;;;;2.67;2.47;;;10.60;97.90;;;;;;6273323;28;20788;-66
2023/04/14 13:38:59;;;;;;;3.37;2.70;;;10.80;98.20;;;;;;6253176;28;20450;-67
2023/04/14 13:42:03;;;;;;;1.80;1.70;;;10.90;98.10;;;;;;6273514;28;20950;-65
2023/04/14 13:45:08;;;;;;;19.57;11.80;;;11.10;97.70;;;;;;6277946;28;20470;-66
2023/04/14 13:48:14;;;;;;;8.13;4.93;;;11.10;97.60;;;;;;6278012;28;20976;-70
2023/04/14 13:51:17;;;;;;;2.07;1.60;;;11.10;97.20;;;;;;6277540;28;20937;-68
2023/04/14 13:54:21;;;;;;;2.20;1.10;;;11.20;97.30;;;;;;6277561;28;20975;-68
2023/04/14 13:57:25;;;;;;;1.40;0.83;;;11.20;96.60;;;;;;6278878;28;20486;-69
2023/04/14 14:00:28;;;;;;;0.60;0.60;;;11.20;96.20;;;;;;6278344;28;20470;-67
2023/04/14 14:03:31;;;;;;;1.43;1.07;;;11.10;96.10;;;;;;6277385;28;20908;-66
2023/04/14 14:06:35;;;;;;;7.77;7.10;;;11.10;96.10;;;;;;6277649;28;20511;-69
2023/04/14 14:09:43;;;;;;;8.83;8.23;;;11.00;95.70;;;;;;6277410;28;20992;-69
2023/04/14 14:12:46;;;;;;;2.83;2.63;;;10.90;96.10;;;;;;6277258;28;20467;-67
2023/04/14 14:15:49;;;;;;;1.47;1.30;;;11.00;96.60;;;;;;6267662;28;20830;-67
2023/04/14 14:18:52;;;;;;;1.30;1.20;;;11.00;96.80;;;;;;6259536;28;20557;-66
2023/04/14 14:21:56;;;;;;;1.30;1.20;;;11.00;96.50;;;;;;6252832;28;20808;-66
2023/04/14 14:25:00;;;;;;;1.50;1.17;;;11.10;95.70;;;;;;6252413;28;20478;-67
2023/04/14 14:28:21;;;;;;;1.63;1.50;;;11.10;95.60;;;;;;6252351;28;20486;-67
2023/04/14 14:31:25;;;;;;;3.30;3.10;;;11.10;95.50;;;;;;6256091;28;20477;-65
2023/04/14 14:34:28;;;;;;;1.70;1.60;;;11.00;95.70;;;;;;6250252;28;20579;-65
2023/04/14 14:37:31;;;;;;;1.80;1.70;;;10.70;96.80;;;;;;6250013;28;20513;-64
2023/04/14 14:40:35;;;;;;;3.00;1.90;;;10.60;97.90;;;;;;6254555;28;20466;-64
2023/04/14 14:43:39;;;;;;;2.10;1.90;;;10.50;99.20;;;;;;6275278;28;20478;-64
2023/04/14 14:46:42;;;;;;;2.17;2.07;;;10.30;99.90;;;;;;6275807;28;20958;-64
2023/04/14 14:49:45;;;;;;;1.97;1.87;;;10.40;99.90;;;;;;6273977;28;20478;-64
2023/04/14 14:53:02;;;;;;;2.37;2.10;;;10.30;99.90;;;;;;6277099;28;20471;-64
2023/04/14 14:56:07;;;;;;;2.60;2.40;;;10.00;99.90;;;;;;6276326;28;20474;-64
2023/04/14 14:59:10;;;;;;;1.93;1.80;;;9.80;99.90;;;;;;6276858;28;20470;-64
2023/04/14 15:02:13;;;;;;;3.03;2.73;;;9.80;99.90;;;;;;6276417;28;20478;-65
2023/04/14 15:05:17;;;;;;;2.17;2.07;;;9.80;99.90;;;;;;6276214;28;20474;-65
2023/04/14 15:08:20;;;;;;;2.13;1.93;;;9.60;99.90;;;;;;6275495;28;20477;-65
2023/04/14 15:11:26;;;;;;;1.90;1.80;;;9.40;99.90;;;;;;6276040;28;21211;-65
2023/04/14 15:14:29;;;;;;;3.27;2.00;;;9.30;99.90;;;;;;6276070;28;20474;-65
2023/04/14 15:17:33;;;;;;;1.70;1.60;;;9.20;99.90;;;;;;6275844;28;20478;-66
2023/04/14 15:20:36;;;;;;;2.40;2.23;;;9.20;99.90;;;;;;6276305;28;20477;-64
2023/04/14 15:23:42;;;;;;;2.00;1.90;;;9.00;99.90;;;;;;6275612;28;20496;-64
2023/04/14 15:26:46;;;;;;;2.77;2.43;;;8.70;99.90;;;;;;6275890;28;20445;-64
2023/04/14 15:29:50;;;;;;;2.00;1.90;;;8.70;99.90;;;;;;6275825;28;20971;-64
2023/04/14 15:32:53;;;;;;;2.30;2.10;;;8.90;99.90;;;;;;6275898;28;20446;-64
2023/04/14 15:35:56;;;;;;;1.90;1.80;;;8.90;99.90;;;;;;6275635;28;20472;-64
2023/04/14 15:38:59;;;;;;;2.53;2.33;;;9.00;99.90;;;;;;6275311;28;20955;-64
2023/04/14 15:42:04;;;;;;;1.60;1.50;;;9.00;99.90;;;;;;6275274;28;20973;-64
2023/04/14 15:45:08;;;;;;;2.43;2.23;;;9.00;99.90;;;;;;6274782;28;20477;-64
2023/04/14 15:48:11;;;;;;;2.50;2.03;;;9.10;99.90;;;;;;6275337;28;20486;-64
2023/04/14 15:51:15;;;;;;;14.40;13.33;;;9.10;99.90;;;;;;6275319;28;20478;-64
2023/04/14 15:54:18;;;;;;;8.23;7.60;;;9.10;99.90;;;;;;6275255;28;20482;-65
2023/04/14 15:57:23;;;;;;;13.87;12.57;;;9.10;99.90;;;;;;6275327;28;20481;-65
2023/04/14 16:00:26;;;;;;;28.20;25.23;;;8.90;99.90;;;;;;6275839;28;20798;-65
2023/04/14 16:03:29;;;;;;;5.17;4.77;;;9.00;99.90;;;;;;6275765;28;20477;-64
2023/04/14 16:06:35;;;;;;;2.70;2.50;;;8.90;99.90;;;;;;6275250;28;20795;-64
2023/04/14 16:09:38;;;;;;;6.20;5.80;;;8.90;99.90;;;;;;6275570;28;20482;-65
2023/04/14 16:12:43;;;;;;;2.20;2.00;;;8.90;99.90;;;;;;6275720;28;20473;-65
2023/04/14 16:15:46;;;;;;;2.70;2.50;;;8.80;99.90;;;;;;6275703;28;20481;-64